createdAt,value
2023-04-18T00:01:42.302Z,9.60
2023-04-18T00:04:10.772Z,9.60
2023-04-18T00:06:38.992Z,9.70
2023-04-18T00:09:07.664Z,9.70
2023-04-18T00:11:35.815Z,9.70
2023-04-18T00:14:06.130Z,9.70
2023-04-18T00:16:36.167Z,9.70
2023-04-18T00:19:05.598Z,9.70
2023-04-18T00:21:33.630Z,9.70
2023-04-18T00:24:02.414Z,9.70
2023-04-18T00:26:30.426Z,9.80
2023-04-18T00:28:59.344Z,9.80
2023-04-18T00:31:27.400Z,9.80
2023-04-18T00:33:57.356Z,9.80
2023-04-18T00:36:25.603Z,9.80
2023-04-18T00:38:53.628Z,9.80
2023-04-18T00:41:23.006Z,9.70
2023-04-18T00:43:51.309Z,9.80
2023-04-18T00:46:19.616Z,9.80
2023-04-18T00:48:48.103Z,9.80
2023-04-18T00:51:18.109Z,9.80
2023-04-18T00:53:46.473Z,9.80
2023-04-18T00:56:14.583Z,9.80
2023-04-18T00:58:42.700Z,9.80
2023-04-18T01:01:10.903Z,9.70
2023-04-18T01:03:39.595Z,9.70
2023-04-18T01:06:08.560Z,9.70
2023-04-18T01:08:38.358Z,9.70
2023-04-18T01:11:07.337Z,9.70
2023-04-18T01:13:35.523Z,9.70
2023-04-18T01:16:05.443Z,9.70
2023-04-18T01:18:35.053Z,9.70
2023-04-18T01:21:03.411Z,9.70
2023-04-18T01:23:31.513Z,9.80
2023-04-18T01:26:01.218Z,9.80
2023-04-18T01:28:29.794Z,9.80
2023-04-18T01:30:58.369Z,9.80
2023-04-18T01:33:26.470Z,9.80
2023-04-18T01:35:54.697Z,9.80
2023-04-18T01:38:22.789Z,9.80
2023-04-18T01:40:51.115Z,9.70
2023-04-18T01:43:20.633Z,9.60
2023-04-18T01:45:48.908Z,9.50
2023-04-18T01:48:17.049Z,9.50
2023-04-18T01:50:45.122Z,9.40
2023-04-18T01:53:13.570Z,9.40
2023-04-18T01:55:45.156Z,9.30
2023-04-18T01:58:13.648Z,9.30
2023-04-18T02:00:43.288Z,9.30
2023-04-18T02:03:11.780Z,9.30
2023-04-18T02:05:39.969Z,9.30
2023-04-18T02:08:11.680Z,9.20
2023-04-18T02:10:39.768Z,9.20
2023-04-18T02:13:08.447Z,9.10
2023-04-18T02:15:37.172Z,9.10
2023-04-18T02:18:09.870Z,9.10
2023-04-18T02:20:38.027Z,9.10
2023-04-18T02:23:06.666Z,9.00
2023-04-18T02:25:34.884Z,9.00
2023-04-18T02:28:03.025Z,9.00
2023-04-18T02:30:32.530Z,9.00
2023-04-18T02:33:03.523Z,8.90
2023-04-18T02:35:33.567Z,8.90
2023-04-18T02:38:01.583Z,8.90
2023-04-18T02:40:30.022Z,8.80
2023-04-18T02:43:01.996Z,8.80
2023-04-18T02:45:30.748Z,8.90
2023-04-18T02:48:01.071Z,8.80
2023-04-18T02:50:30.179Z,8.40
2023-04-18T02:53:00.455Z,8.80
2023-04-18T02:55:39.524Z,8.80
2023-04-18T02:58:07.734Z,8.80
2023-04-18T03:00:55.619Z,8.80
2023-04-18T03:03:45.678Z,8.30
2023-04-18T03:06:34.808Z,8.80
2023-04-18T03:09:05.493Z,8.70
2023-04-18T03:11:36.768Z,8.70
2023-04-18T03:14:06.442Z,8.80
2023-04-18T03:16:42.422Z,8.80
2023-04-18T03:19:14.470Z,8.70
2023-04-18T03:21:42.527Z,8.60
2023-04-18T03:24:15.002Z,8.60
2023-04-18T03:26:46.264Z,8.60
2023-04-18T03:29:15.110Z,8.60
2023-04-18T03:31:46.114Z,8.50
2023-04-18T03:34:14.769Z,8.50
2023-04-18T03:36:43.049Z,8.50
2023-04-18T03:39:12.358Z,8.40
2023-04-18T03:41:42.077Z,8.40
2023-04-18T03:44:10.129Z,8.40
2023-04-18T03:46:41.258Z,8.40
2023-04-18T03:49:10.938Z,8.30
2023-04-18T03:51:43.592Z,8.30
2023-04-18T03:54:11.881Z,8.30
2023-04-18T03:56:40.254Z,8.30
2023-04-18T03:59:10.246Z,8.20
2023-04-18T04:01:38.950Z,8.20
2023-04-18T04:04:09.023Z,8.20
2023-04-18T04:06:37.252Z,8.20
2023-04-18T04:09:05.653Z,8.20
2023-04-18T04:11:34.910Z,8.10
2023-04-18T04:14:03.545Z,8.10
2023-04-18T04:16:40.580Z,8.10
2023-04-18T04:19:09.486Z,8.10
2023-04-18T04:21:44.702Z,8.10
2023-04-18T04:24:16.197Z,8.10
2023-04-18T04:26:48.896Z,8.10
2023-04-18T04:29:21.585Z,8.10
2023-04-18T04:31:51.795Z,8.00
2023-04-18T04:34:31.641Z,8.10
2023-04-18T04:37:02.170Z,8.00
2023-04-18T04:39:32.463Z,8.00
2023-04-18T04:42:13.414Z,8.10
2023-04-18T04:44:53.720Z,8.10
2023-04-18T04:47:24.655Z,8.00
2023-04-18T04:49:53.122Z,8.00
2023-04-18T04:52:21.154Z,7.90
2023-04-18T04:54:49.621Z,7.90
2023-04-18T04:57:20.331Z,7.90
2023-04-18T04:59:48.933Z,7.90
2023-04-18T05:02:17.077Z,8.00
2023-04-18T05:04:46.933Z,7.90
2023-04-18T05:07:14.976Z,7.90
2023-04-18T05:09:43.287Z,8.00
2023-04-18T05:12:11.353Z,7.90
2023-04-18T05:14:40.094Z,8.00
2023-04-18T05:17:09.345Z,8.00
2023-04-18T05:19:38.410Z,8.20
2023-04-18T05:22:07.808Z,7.90
2023-04-18T05:24:36.365Z,8.00
2023-04-18T05:27:04.611Z,8.00
2023-04-18T05:29:32.968Z,7.90
2023-04-18T05:32:00.980Z,7.90
2023-04-18T05:34:29.551Z,8.00
2023-04-18T05:36:57.766Z,8.00
2023-04-18T05:39:27.693Z,8.00
2023-04-18T05:41:55.787Z,8.00
2023-04-18T05:44:24.164Z,8.00
2023-04-18T05:46:52.639Z,8.00
2023-04-18T05:49:20.891Z,8.00
2023-04-18T05:51:50.190Z,8.00
2023-04-18T05:54:18.220Z,8.00
2023-04-18T05:56:48.043Z,8.00
2023-04-18T05:59:16.172Z,8.00
2023-04-18T06:01:44.660Z,8.10
2023-04-18T06:04:13.156Z,8.10
2023-04-18T06:06:41.510Z,8.20
2023-04-18T06:09:09.877Z,8.30
2023-04-18T06:11:37.911Z,8.30
2023-04-18T06:14:07.805Z,8.40
2023-04-18T06:16:37.278Z,8.40
2023-04-18T06:19:05.774Z,8.40
2023-04-18T06:21:34.467Z,8.40
2023-04-18T06:24:02.539Z,8.50
2023-04-18T06:26:32.170Z,8.50
2023-04-18T06:29:00.240Z,8.50
2023-04-18T06:31:29.890Z,8.50
2023-04-18T06:33:58.196Z,8.50
2023-04-18T06:36:27.465Z,8.60
2023-04-18T06:38:55.833Z,8.60
2023-04-18T06:41:24.146Z,8.60
2023-04-18T06:46:28.173Z,8.60
2023-04-18T06:48:57.615Z,8.60
2023-04-18T06:51:25.970Z,8.60
2023-04-18T06:53:56.491Z,8.70
2023-04-18T06:56:24.876Z,8.70
2023-04-18T06:58:53.742Z,8.70
2023-04-18T07:01:21.815Z,8.80
2023-04-18T07:03:50.438Z,8.90
2023-04-18T07:06:19.951Z,8.90
2023-04-18T07:08:48.384Z,9.00
2023-04-18T07:11:18.505Z,9.10
2023-04-18T07:13:47.575Z,9.30
2023-04-18T07:16:15.730Z,9.50
2023-04-18T07:18:44.138Z,9.60
2023-04-18T07:21:12.472Z,9.70
2023-04-18T07:23:42.277Z,9.80
2023-04-18T07:26:13.454Z,9.90
2023-04-18T07:28:41.610Z,10.00
2023-04-18T07:31:11.418Z,9.90
2023-04-18T07:33:39.583Z,9.90
2023-04-18T07:36:08.240Z,10.00
2023-04-18T07:38:36.355Z,10.00
2023-04-18T07:41:06.050Z,10.00
2023-04-18T07:43:34.334Z,10.00
2023-04-18T07:46:02.996Z,10.00
2023-04-18T07:48:31.146Z,10.10
2023-04-18T07:51:00.450Z,10.10
2023-04-18T07:53:30.878Z,10.10
2023-04-18T07:55:59.332Z,10.20
2023-04-18T07:58:29.082Z,10.20
2023-04-18T08:00:58.418Z,10.30
2023-04-18T08:03:27.454Z,10.30
2023-04-18T08:05:55.840Z,10.30
2023-04-18T08:08:24.385Z,10.20
2023-04-18T08:10:52.476Z,10.20
2023-04-18T08:13:20.840Z,10.20
2023-04-18T08:15:50.576Z,10.20
2023-04-18T08:18:19.844Z,10.20
2023-04-18T08:20:47.899Z,10.20
2023-04-18T08:23:16.163Z,10.20
2023-04-18T08:25:44.567Z,10.10
2023-04-18T08:28:13.819Z,10.10
2023-04-18T08:30:43.099Z,10.10
2023-04-18T08:33:12.472Z,10.10
2023-04-18T08:35:41.031Z,10.10
2023-04-18T08:38:09.093Z,10.10
2023-04-18T08:40:37.981Z,10.10
2023-04-18T08:43:09.261Z,10.10
2023-04-18T08:45:37.695Z,10.10
2023-04-18T08:48:06.415Z,10.10
2023-04-18T08:50:36.405Z,10.10
2023-04-18T08:53:04.506Z,10.10
2023-04-18T08:55:33.786Z,10.10
2023-04-18T08:58:02.132Z,10.20
2023-04-18T09:00:30.700Z,10.20
2023-04-18T09:02:59.197Z,10.20
2023-04-18T09:05:35.772Z,10.30
2023-04-18T09:08:23.608Z,10.30
2023-04-18T09:10:52.961Z,10.30
2023-04-18T09:13:36.158Z,10.40
2023-04-18T09:16:06.453Z,10.40
2023-04-18T09:18:34.621Z,10.40
2023-04-18T09:21:17.462Z,10.50
2023-04-18T09:23:47.422Z,10.50
2023-04-18T09:26:25.202Z,10.50
2023-04-18T09:28:54.399Z,10.50
2023-04-18T09:31:22.737Z,10.60
2023-04-18T09:33:54.089Z,10.70
2023-04-18T09:36:22.877Z,10.70
2023-04-18T09:38:56.318Z,10.70
2023-04-18T09:41:25.624Z,10.80
2023-04-18T09:44:14.459Z,10.80
2023-04-18T09:46:46.101Z,10.80
2023-04-18T09:49:15.973Z,10.80
2023-04-18T09:51:46.041Z,10.80
2023-04-18T09:54:17.244Z,10.80
2023-04-18T09:56:46.416Z,10.90
2023-04-18T09:59:18.663Z,10.90
2023-04-18T10:01:50.626Z,10.90
2023-04-18T10:04:19.296Z,11.00
2023-04-18T10:06:47.768Z,11.00
2023-04-18T10:09:17.598Z,11.00
2023-04-18T10:11:45.955Z,10.90
2023-04-18T10:14:16.670Z,10.90
2023-04-18T10:16:47.491Z,11.00
2023-04-18T10:19:24.008Z,11.00
2023-04-18T10:21:52.801Z,11.00
2023-04-18T10:24:36.049Z,11.00
2023-04-18T10:27:05.575Z,11.00
2023-04-18T10:29:47.415Z,11.10
2023-04-18T10:32:15.563Z,11.20
2023-04-18T10:34:44.717Z,11.20
2023-04-18T10:37:14.092Z,11.20
2023-04-18T10:39:49.458Z,11.20
2023-04-18T10:42:19.138Z,11.20
2023-04-18T10:45:02.153Z,11.30
2023-04-18T10:47:31.505Z,11.40
2023-04-18T10:50:01.563Z,11.50
2023-04-18T10:52:33.263Z,11.60
2023-04-18T10:55:12.213Z,11.70
2023-04-18T10:57:43.080Z,11.70
2023-04-18T11:00:12.875Z,11.70
2023-04-18T11:02:42.239Z,11.70
2023-04-18T11:05:10.769Z,11.70
2023-04-18T11:07:39.791Z,11.70
2023-04-18T11:10:09.096Z,11.60
2023-04-18T11:12:38.772Z,11.60
2023-04-18T11:15:12.444Z,11.60
2023-04-18T11:17:41.412Z,11.60
2023-04-18T11:20:10.978Z,11.60
2023-04-18T11:22:46.394Z,11.60
2023-04-18T11:25:16.406Z,11.60
2023-04-18T11:27:46.344Z,11.60
2023-04-18T11:30:16.356Z,11.50
2023-04-18T11:32:45.110Z,11.50
2023-04-18T11:35:13.718Z,11.50
2023-04-18T11:37:42.399Z,11.60
2023-04-18T11:40:10.570Z,11.60
2023-04-18T11:42:39.614Z,11.60
2023-04-18T11:45:10.464Z,11.60
2023-04-18T11:47:41.823Z,11.60
2023-04-18T11:50:10.799Z,11.60
2023-04-18T11:52:39.992Z,11.60
2023-04-18T11:55:13.844Z,11.60
2023-04-18T11:57:42.534Z,11.60
2023-04-18T12:00:12.267Z,11.60
2023-04-18T12:02:43.226Z,11.60
2023-04-18T12:05:12.014Z,11.60
2023-04-18T12:07:41.836Z,11.60
2023-04-18T12:10:10.788Z,11.60
2023-04-18T12:12:39.201Z,11.70
2023-04-18T12:15:09.315Z,11.70
2023-04-18T12:17:38.186Z,11.80
2023-04-18T12:20:09.887Z,11.80
2023-04-18T12:22:40.671Z,11.90
2023-04-18T12:25:09.830Z,11.90
2023-04-18T12:27:58.199Z,12.00
2023-04-18T12:30:27.572Z,12.00
2023-04-18T12:32:56.914Z,12.00
2023-04-18T12:35:27.070Z,12.10
2023-04-18T12:37:56.096Z,12.20
2023-04-18T12:40:27.208Z,12.20
2023-04-18T12:42:57.409Z,12.20
2023-04-18T12:45:26.012Z,12.20
2023-04-18T12:47:54.270Z,12.20
2023-04-18T12:50:23.296Z,12.30
2023-04-18T12:52:53.741Z,12.30
2023-04-18T12:55:22.658Z,12.30
2023-04-18T12:57:54.120Z,12.30
2023-04-18T13:00:23.816Z,12.30
2023-04-18T13:02:52.441Z,12.30
2023-04-18T13:05:23.742Z,12.20
2023-04-18T13:08:04.768Z,12.20
2023-04-18T13:10:41.465Z,12.20
2023-04-18T13:13:09.661Z,12.20
2023-04-18T13:15:38.634Z,12.20
2023-04-18T13:18:06.962Z,12.20
2023-04-18T13:20:36.026Z,12.10
2023-04-18T13:23:05.844Z,12.10
2023-04-18T13:25:34.582Z,12.00
2023-04-18T13:28:02.632Z,12.10
2023-04-18T13:30:31.987Z,12.00
2023-04-18T13:33:00.258Z,12.00
2023-04-18T13:35:30.196Z,12.00
2023-04-18T13:37:58.466Z,12.00
2023-04-18T13:40:28.283Z,12.00
2023-04-18T13:42:56.613Z,11.90
2023-04-18T13:45:24.658Z,11.90
2023-04-18T13:47:53.075Z,11.90
2023-04-18T13:50:21.251Z,11.90
2023-04-18T13:52:52.163Z,11.90
2023-04-18T13:55:20.224Z,11.90
2023-04-18T13:57:49.865Z,11.90
2023-04-18T14:00:19.297Z,11.90
2023-04-18T14:02:47.847Z,11.90
2023-04-18T14:05:16.216Z,11.80
2023-04-18T14:07:44.780Z,11.90
2023-04-18T14:10:12.838Z,11.80
2023-04-18T14:12:41.377Z,11.80
2023-04-18T14:15:11.636Z,11.70
2023-04-18T14:17:40.273Z,11.80
2023-04-18T14:20:09.345Z,11.80
2023-04-18T14:25:28.882Z,11.70
2023-04-18T14:28:04.785Z,11.60
2023-04-18T14:30:34.260Z,11.60
2023-04-18T14:33:02.343Z,11.50
2023-04-18T14:35:30.705Z,11.50
2023-04-18T14:37:58.785Z,11.40
2023-04-18T14:40:27.674Z,11.40
2023-04-18T14:42:57.474Z,11.30
2023-04-18T14:45:26.079Z,11.30
2023-04-18T14:47:55.819Z,11.30
2023-04-18T14:50:24.030Z,11.20
2023-04-18T14:52:52.413Z,11.20
2023-04-18T14:55:20.467Z,11.20
2023-04-18T14:57:48.731Z,11.20
2023-04-18T15:00:17.041Z,11.20
2023-04-18T15:02:45.258Z,11.20
2023-04-18T15:05:14.923Z,11.10
2023-04-18T15:07:44.524Z,11.10
2023-04-18T15:10:15.050Z,11.10
2023-04-18T15:12:43.238Z,11.10
2023-04-18T15:15:11.704Z,11.10
2023-04-18T15:17:39.935Z,11.10
2023-04-18T15:20:10.190Z,11.00
2023-04-18T15:22:40.885Z,11.10
2023-04-18T15:25:20.757Z,11.00
2023-04-18T15:27:50.628Z,11.00
2023-04-18T15:30:19.091Z,11.00
2023-04-18T15:32:47.612Z,11.00
2023-04-18T15:35:15.763Z,11.00
2023-04-18T15:37:45.158Z,11.00
2023-04-18T15:40:16.216Z,10.90
2023-04-18T15:42:44.489Z,10.90
2023-04-18T15:45:12.668Z,10.90
2023-04-18T15:47:41.544Z,10.90
2023-04-18T15:50:10.112Z,10.80
2023-04-18T15:52:38.220Z,10.80
2023-04-18T15:55:09.080Z,10.80
2023-04-18T15:57:37.266Z,10.80
2023-04-18T16:00:10.051Z,10.70
2023-04-18T16:02:38.287Z,10.70
2023-04-18T16:05:07.402Z,10.70
2023-04-18T16:07:36.093Z,10.60
2023-04-18T16:10:04.253Z,10.60
2023-04-18T16:12:33.688Z,10.70
2023-04-18T16:15:01.778Z,10.70
2023-04-18T16:17:29.883Z,10.60
2023-04-18T16:19:57.981Z,10.60
2023-04-18T16:22:26.139Z,10.70
2023-04-18T16:24:54.152Z,10.70
2023-04-18T16:27:22.223Z,10.70
2023-04-18T16:29:53.731Z,10.70
2023-04-18T16:32:21.993Z,10.70
2023-04-18T16:34:50.081Z,10.70
2023-04-18T16:37:18.166Z,10.70
2023-04-18T16:39:46.294Z,10.70
2023-04-18T16:42:15.748Z,10.70
2023-04-18T16:44:45.107Z,10.80
2023-04-18T16:47:14.649Z,10.80
2023-04-18T16:49:43.538Z,10.80
2023-04-18T16:52:11.541Z,10.80
2023-04-18T16:54:39.609Z,10.90
2023-04-18T16:57:07.728Z,10.90
2023-04-18T16:59:35.836Z,10.90
2023-04-18T17:02:04.521Z,10.90
2023-04-18T17:04:34.013Z,10.90
2023-04-18T17:07:02.339Z,10.90
2023-04-18T17:09:33.170Z,10.90
2023-04-18T17:12:04.833Z,10.90
2023-04-18T17:14:33.380Z,10.90
2023-04-18T17:17:03.158Z,10.90
2023-04-18T17:19:31.346Z,10.90
2023-04-18T17:22:00.809Z,10.90
2023-04-18T17:24:29.031Z,10.90
2023-04-18T17:26:57.956Z,10.90
2023-04-18T17:29:26.616Z,10.90
2023-04-18T17:31:54.737Z,10.90
2023-04-18T17:34:22.831Z,10.90
2023-04-18T17:36:50.958Z,10.80
2023-04-18T17:39:20.367Z,10.80
2023-04-18T17:41:48.462Z,10.80
2023-04-18T17:44:16.694Z,10.70
2023-04-18T17:46:44.699Z,10.70
2023-04-18T17:49:12.959Z,10.70
2023-04-18T17:51:41.212Z,10.80
2023-04-18T17:54:10.697Z,10.70
2023-04-18T17:56:40.474Z,10.80
2023-04-18T17:59:09.768Z,10.70
2023-04-18T18:01:38.660Z,10.80
2023-04-18T18:04:07.239Z,10.80
2023-04-18T18:06:35.989Z,10.80
2023-04-18T18:09:04.562Z,10.80
2023-04-18T18:11:32.687Z,10.80
2023-04-18T18:14:02.073Z,10.70
2023-04-18T18:16:30.327Z,10.80
2023-04-18T18:18:59.166Z,10.80
2023-04-18T18:21:27.247Z,10.70
2023-04-18T18:23:55.214Z,10.70
2023-04-18T18:26:23.301Z,10.70
2023-04-18T18:28:51.386Z,10.70
2023-04-18T18:31:24.697Z,10.70
2023-04-18T18:33:52.898Z,10.80
2023-04-18T18:36:20.920Z,10.70
2023-04-18T18:38:48.979Z,10.70
2023-04-18T18:41:17.057Z,10.70
2023-04-18T18:43:45.166Z,10.70
2023-04-18T18:46:15.084Z,10.70
2023-04-18T18:48:44.572Z,10.80
2023-04-18T18:51:12.674Z,10.80
2023-04-18T18:53:40.775Z,10.80
2023-04-18T18:56:09.598Z,10.80
2023-04-18T18:58:39.038Z,10.80
2023-04-18T19:01:07.216Z,10.80
2023-04-18T19:03:35.601Z,10.80
2023-04-18T19:06:07.005Z,10.90
2023-04-18T19:08:35.100Z,10.90
2023-04-18T19:11:03.629Z,10.90
2023-04-18T19:13:31.818Z,10.90
2023-04-18T19:15:59.900Z,10.90
2023-04-18T19:18:27.880Z,10.90
2023-04-18T19:20:55.901Z,10.80
2023-04-18T19:23:25.308Z,10.70
2023-04-18T19:25:53.349Z,10.80
2023-04-18T19:28:22.845Z,10.70
2023-04-18T19:30:50.941Z,10.70
2023-04-18T19:33:19.702Z,10.60
2023-04-18T19:35:47.715Z,10.60
2023-04-18T19:38:15.773Z,10.70
2023-04-18T19:40:45.268Z,10.60
2023-04-18T19:43:13.444Z,10.60
2023-04-18T19:45:41.522Z,10.60
2023-04-18T19:48:09.590Z,10.60
2023-04-18T19:50:39.784Z,10.50
2023-04-18T19:53:07.852Z,10.50
2023-04-18T19:55:35.930Z,10.50
2023-04-18T19:58:05.760Z,10.50
2023-04-18T20:00:35.177Z,10.50
2023-04-18T20:03:03.437Z,10.50
2023-04-18T20:05:31.898Z,10.50
2023-04-18T20:07:59.976Z,10.40
2023-04-18T20:10:28.221Z,10.40
2023-04-18T20:12:56.318Z,10.40
2023-04-18T20:15:25.671Z,10.40
2023-04-18T20:17:53.796Z,10.30
2023-04-18T20:20:21.844Z,10.30
2023-04-18T20:22:49.911Z,10.30
2023-04-18T20:25:17.916Z,10.20
2023-04-18T20:27:47.391Z,10.20
2023-04-18T20:30:16.939Z,10.20
2023-04-18T20:32:46.416Z,10.10
2023-04-18T20:35:14.507Z,10.20
2023-04-18T20:37:42.483Z,10.20
2023-04-18T20:40:11.257Z,10.10
2023-04-18T20:42:39.629Z,10.10
2023-04-18T20:45:10.839Z,10.10
2023-04-18T20:47:40.093Z,10.10
2023-04-18T20:50:10.701Z,10.10
2023-04-18T20:52:42.941Z,10.10
2023-04-18T20:55:11.296Z,10.10
2023-04-18T20:57:39.431Z,10.00
2023-04-18T21:00:08.294Z,10.00
2023-04-18T21:02:36.647Z,10.00
2023-04-18T21:05:07.283Z,10.00
2023-04-18T21:07:37.194Z,10.00
2023-04-18T21:10:05.549Z,10.00
2023-04-18T21:12:33.867Z,9.90
2023-04-18T21:15:02.162Z,9.90
2023-04-18T21:17:31.541Z,9.90
2023-04-18T21:19:59.622Z,9.90
2023-04-18T21:22:27.645Z,9.90
2023-04-18T21:24:57.033Z,9.90
2023-04-18T21:27:25.190Z,9.90
2023-04-18T21:29:53.224Z,9.80
2023-04-18T21:32:21.269Z,9.80
2023-04-18T21:34:49.298Z,9.80
2023-04-18T21:37:17.411Z,9.80
2023-04-18T21:39:45.574Z,9.80
2023-04-18T21:42:15.000Z,9.80
2023-04-18T21:44:48.826Z,9.80
2023-04-18T21:47:17.129Z,9.80
2023-04-18T21:49:45.419Z,9.80
2023-04-18T21:52:13.410Z,9.70
2023-04-18T21:54:41.871Z,9.70
2023-04-18T21:57:10.077Z,9.70
2023-04-18T21:59:39.545Z,9.80
2023-04-18T22:02:07.671Z,9.80
2023-04-18T22:04:38.216Z,9.80
2023-04-18T22:07:06.561Z,9.80
2023-04-18T22:09:53.546Z,9.80
2023-04-18T22:12:21.581Z,9.80
2023-04-18T22:14:52.976Z,9.70
2023-04-18T22:17:21.979Z,9.80
2023-04-18T22:19:50.828Z,9.80
2023-04-18T22:22:19.094Z,9.80
2023-04-18T22:24:47.992Z,9.70
2023-04-18T22:27:16.322Z,9.70
2023-04-18T22:29:44.360Z,9.70
2023-04-18T22:32:14.289Z,9.70
2023-04-18T22:34:42.394Z,9.70
2023-04-18T22:37:10.755Z,9.70
2023-04-18T22:39:38.764Z,9.70
2023-04-18T22:42:06.852Z,9.70
2023-04-18T22:44:34.912Z,9.70
2023-04-18T22:47:03.192Z,9.70
2023-04-18T22:49:33.338Z,9.70
2023-04-18T22:52:01.367Z,9.60
2023-04-18T22:54:29.771Z,9.70
2023-04-18T22:56:58.315Z,9.60
2023-04-18T22:59:26.612Z,9.60
2023-04-18T23:01:55.848Z,9.60
2023-04-18T23:04:24.026Z,9.60
2023-04-18T23:06:53.920Z,9.60
2023-04-18T23:09:22.163Z,9.60
2023-04-18T23:11:50.172Z,9.60
2023-04-18T23:14:18.526Z,9.60
2023-04-18T23:16:46.538Z,9.60
2023-04-18T23:19:15.009Z,9.60
2023-04-18T23:21:43.154Z,9.60
2023-04-18T23:24:13.163Z,9.60
2023-04-18T23:26:41.365Z,9.60
2023-04-18T23:29:09.405Z,9.60
2023-04-18T23:31:37.489Z,9.60
2023-04-18T23:34:06.151Z,9.60
2023-04-18T23:36:34.232Z,9.60
2023-04-18T23:39:02.369Z,9.60
2023-04-18T23:41:31.735Z,9.60
2023-04-18T23:43:59.960Z,9.60
2023-04-18T23:46:28.381Z,9.60
2023-04-18T23:48:56.382Z,9.60
2023-04-18T23:51:24.572Z,9.70
2023-04-18T23:53:52.625Z,9.70
2023-04-18T23:56:21.750Z,9.60
2023-04-18T23:58:51.145Z,9.60
